Time;durP1;ratioP1;P1;durP2;ratioP2;P2;SDS_P1;SDS_P2;PMS_P1;PMS_P2;Temp;Humidity;BMP_temperature;BMP_pressure;BME280_temperature;BME280_humidity;BME280_pressure;Samples;Min_cycle;Max_cycle;Signal;HPM_P1;HPM_P2
2024/04/02 05:01:28;;;;;;;2.42;0.63;;;8.80;90.10;;;;;;4318136;24;20077;-73
2024/04/02 05:03:29;;;;;;;1.25;0.50;;;8.80;90.10;;;;;;3994124;29;20549;-74
2024/04/02 05:05:31;;;;;;;1.20;0.40;;;8.80;90.10;;;;;;3994030;29;20054;-74
2024/04/02 05:07:32;;;;;;;1.75;0.63;;;8.80;90.20;;;;;;3994106;29;20162;-74
2024/04/02 05:09:34;;;;;;;1.08;0.40;;;8.80;90.20;;;;;;3994049;29;20062;-74
2024/04/02 05:11:35;;;;;;;2.53;0.82;;;8.80;90.10;;;;;;3994027;29;20107;-74
2024/04/02 05:13:40;;;;;;;3.63;1.15;;;8.80;90.10;;;;;;3993936;29;20051;-74
2024/04/02 05:15:41;;;;;;;1.98;0.52;;;8.90;90.10;;;;;;3993305;29;20168;-73
2024/04/02 05:17:44;;;;;;;1.67;0.50;;;8.90;90.00;;;;;;3993824;29;20050;-74
2024/04/02 05:19:45;;;;;;;1.45;0.40;;;8.90;90.00;;;;;;3992716;29;20103;-74
2024/04/02 05:21:47;;;;;;;1.77;0.68;;;8.90;90.00;;;;;;3993757;29;20050;-74
2024/04/02 05:23:47;;;;;;;1.15;0.32;;;8.90;90.10;;;;;;3993908;29;20553;-74
2024/04/02 05:25:49;;;;;;;1.23;0.38;;;8.90;90.10;;;;;;3993774;29;20047;-74
2024/04/02 05:27:50;;;;;;;1.13;0.52;;;8.90;90.00;;;;;;3993677;29;20054;-73
2024/04/02 05:29:52;;;;;;;2.42;0.50;;;8.90;90.20;;;;;;3993841;29;20451;-74
2024/04/02 05:31:53;;;;;;;2.25;0.50;;;8.90;90.20;;;;;;3993832;29;20054;-74
2024/04/02 05:33:56;;;;;;;1.63;0.50;;;8.90;90.20;;;;;;3993754;29;20386;-74
2024/04/02 05:35:57;;;;;;;1.77;0.50;;;9.00;90.30;;;;;;3993780;29;20111;-73
2024/04/02 05:37:59;;;;;;;1.35;0.50;;;9.00;90.30;;;;;;3993599;29;20054;-74
2024/04/02 05:40:01;;;;;;;2.00;0.57;;;9.00;90.20;;;;;;3993700;29;20463;-74
2024/04/02 05:42:02;;;;;;;1.08;0.60;;;9.00;90.20;;;;;;3993551;29;20500;-74
2024/04/02 05:44:05;;;;;;;2.17;0.70;;;9.00;90.10;;;;;;3993137;29;20445;-73
2024/04/02 05:46:05;;;;;;;1.70;0.57;;;9.00;90.00;;;;;;3993630;29;20046;-74
2024/04/02 05:48:08;;;;;;;1.13;0.50;;;9.00;90.00;;;;;;3993582;29;20107;-73
2024/04/02 05:50:10;;;;;;;1.70;0.55;;;9.10;90.00;;;;;;3993576;29;20127;-74
2024/04/02 05:52:12;;;;;;;2.15;0.47;;;9.10;90.10;;;;;;3993133;29;20121;-74
2024/04/02 05:54:13;;;;;;;1.17;0.40;;;9.10;90.00;;;;;;3993614;29;20489;-74
2024/04/02 05:56:15;;;;;;;1.08;0.50;;;9.10;89.90;;;;;;3993483;29;20102;-74
2024/04/02 05:58:16;;;;;;;2.97;0.52;;;9.10;90.00;;;;;;3993305;29;20058;-74
2024/04/02 06:00:18;;;;;;;1.38;0.50;;;9.20;90.10;;;;;;3993206;29;20054;-74
2024/04/02 06:02:19;;;;;;;2.47;0.65;;;9.20;90.00;;;;;;3993344;29;20078;-74
2024/04/02 06:04:21;;;;;;;1.55;0.50;;;9.30;89.90;;;;;;3993356;29;20058;-74
2024/04/02 06:06:25;;;;;;;1.55;0.65;;;9.30;89.60;;;;;;3992936;29;20471;-74
2024/04/02 06:08:27;;;;;;;1.10;0.55;;;9.30;89.90;;;;;;3978176;29;20127;-74
2024/04/02 06:10:29;;;;;;;1.90;0.50;;;9.30;90.00;;;;;;3989952;29;20058;-74
2024/04/02 06:12:31;;;;;;;2.45;0.73;;;9.30;90.00;;;;;;3993186;29;20447;-74
2024/04/02 06:14:33;;;;;;;1.27;0.50;;;9.30;90.00;;;;;;3993294;29;20085;-74
2024/04/02 06:16:35;;;;;;;1.88;0.60;;;9.30;90.00;;;;;;3993204;29;20137;-74
2024/04/02 06:18:36;;;;;;;1.73;0.50;;;9.30;90.10;;;;;;3993111;29;20386;-75
2024/04/02 06:20:38;;;;;;;2.35;0.65;;;9.30;90.10;;;;;;3992860;29;20106;-75
2024/04/02 06:22:40;;;;;;;2.13;0.60;;;9.30;90.20;;;;;;3993034;29;20095;-75
2024/04/02 06:24:42;;;;;;;1.90;0.60;;;9.30;90.20;;;;;;3993055;29;20141;-75
2024/04/02 06:26:46;;;;;;;1.90;0.60;;;9.40;90.20;;;;;;3993084;29;20054;-75
2024/04/02 06:28:48;;;;;;;2.85;0.70;;;9.40;90.20;;;;;;3993026;29;20439;-74
2024/04/02 06:30:48;;;;;;;1.52;0.50;;;9.40;90.30;;;;;;3992978;29;20064;-74
2024/04/02 06:32:50;;;;;;;2.47;0.60;;;9.40;90.50;;;;;;3992957;29;20501;-74
2024/04/02 06:34:51;;;;;;;2.53;0.68;;;9.50;90.50;;;;;;3992972;29;20554;-74
2024/04/02 06:36:53;;;;;;;2.92;0.60;;;9.30;90.70;;;;;;3992913;29;20054;-74
2024/04/02 06:38:55;;;;;;;2.63;0.80;;;9.40;90.60;;;;;;3992525;29;20046;-74
2024/04/02 06:40:57;;;;;;;3.42;0.70;;;9.50;90.80;;;;;;3992922;29;20462;-74
2024/04/02 06:42:58;;;;;;;1.67;0.50;;;9.50;90.80;;;;;;3992728;29;20103;-74
2024/04/02 06:45:00;;;;;;;2.42;0.50;;;9.40;90.90;;;;;;3992850;29;20058;-74
2024/04/02 06:47:01;;;;;;;2.35;0.65;;;9.30;91.20;;;;;;3992948;29;20054;-74
2024/04/02 06:49:03;;;;;;;1.27;0.40;;;9.30;91.40;;;;;;3992763;29;20450;-74
2024/04/02 06:51:05;;;;;;;2.40;0.45;;;9.30;91.50;;;;;;3993024;29;20128;-74
2024/04/02 06:53:07;;;;;;;3.75;0.60;;;9.30;91.20;;;;;;3992882;29;20054;-75
2024/04/02 06:55:10;;;;;;;2.05;0.50;;;9.30;91.50;;;;;;3992870;29;20454;-74
2024/04/02 06:57:11;;;;;;;1.38;0.45;;;9.30;91.50;;;;;;3992721;29;20051;-74
2024/04/02 06:59:12;;;;;;;2.38;0.70;;;9.30;91.50;;;;;;3992562;29;20054;-74
2024/04/02 07:01:14;;;;;;;1.92;0.50;;;9.20;92.00;;;;;;3992545;29;20145;-75
2024/04/02 07:03:18;;;;;;;1.50;0.45;;;9.30;92.00;;;;;;3992782;29;20111;-74
2024/04/02 07:05:20;;;;;;;0.90;0.30;;;9.30;91.90;;;;;;3992449;29;20381;-74
2024/04/02 07:07:21;;;;;;;2.30;0.60;;;9.40;91.80;;;;;;3992590;29;20058;-74
2024/04/02 07:09:23;;;;;;;1.23;0.40;;;9.30;91.80;;;;;;3992679;29;20497;-75
2024/04/02 07:11:25;;;;;;;1.05;0.40;;;9.30;91.90;;;;;;3992649;29;20144;-74
2024/04/02 07:13:27;;;;;;;1.23;0.40;;;9.30;91.90;;;;;;3992355;29;20062;-74
2024/04/02 07:15:28;;;;;;;0.75;0.35;;;9.30;91.80;;;;;;3992660;29;20382;-74
2024/04/02 07:17:30;;;;;;;0.98;0.38;;;9.40;91.50;;;;;;3992807;29;20069;-74
2024/04/02 07:19:31;;;;;;;1.70;0.43;;;9.30;91.30;;;;;;3992626;29;20046;-74
2024/04/02 07:21:33;;;;;;;3.45;0.50;;;9.40;91.30;;;;;;3992303;29;20088;-74
2024/04/02 07:23:35;;;;;;;2.03;0.40;;;9.40;91.40;;;;;;3992261;29;20050;-74
2024/04/02 07:25:37;;;;;;;1.45;0.50;;;9.50;91.20;;;;;;3992390;29;20416;-74
2024/04/02 07:27:40;;;;;;;2.13;0.55;;;9.50;91.10;;;;;;3992358;29;20103;-74
2024/04/02 07:29:42;;;;;;;1.77;0.38;;;9.50;91.00;;;;;;3992213;29;20076;-74
2024/04/02 07:31:43;;;;;;;2.17;0.45;;;9.60;91.00;;;;;;3992246;29;20054;-74
2024/04/02 07:33:45;;;;;;;1.42;0.45;;;9.50;91.10;;;;;;3991829;29;20112;-74
2024/04/02 07:35:46;;;;;;;3.15;0.77;;;9.50;91.00;;;;;;3992219;29;20385;-74
2024/04/02 07:37:47;;;;;;;2.58;0.75;;;9.50;91.20;;;;;;3992191;29;20103;-74
2024/04/02 07:39:49;;;;;;;2.63;0.50;;;9.50;91.10;;;;;;3991965;29;20428;-74
2024/04/02 07:41:49;;;;;;;1.25;0.40;;;9.50;91.20;;;;;;3991646;29;20046;-74
2024/04/02 07:43:53;;;;;;;2.70;0.50;;;9.50;91.20;;;;;;3992170;29;20103;-74
2024/04/02 07:45:54;;;;;;;2.72;0.50;;;9.50;91.70;;;;;;3992078;29;20118;-74
2024/04/02 07:47:56;;;;;;;2.78;0.60;;;9.50;91.10;;;;;;3991886;29;20050;-74
2024/04/02 07:49:57;;;;;;;3.53;0.60;;;9.50;91.00;;;;;;3991957;29;20046;-74
2024/04/02 07:51:58;;;;;;;4.40;0.70;;;9.50;90.70;;;;;;3992201;29;20110;-75
2024/04/02 07:53:59;;;;;;;3.15;0.60;;;9.50;90.60;;;;;;3992090;29;20050;-74
2024/04/02 07:56:01;;;;;;;1.23;0.50;;;9.60;90.70;;;;;;3992060;29;20050;-74
2024/04/02 07:58:02;;;;;;;2.28;0.40;;;9.70;90.60;;;;;;3992086;29;20466;-73
2024/04/02 08:00:07;;;;;;;1.60;0.40;;;9.80;90.30;;;;;;3992184;29;20058;-74
2024/04/02 08:02:08;;;;;;;2.00;0.40;;;9.80;89.80;;;;;;3991710;29;20086;-75
2024/04/02 08:04:10;;;;;;;2.83;0.70;;;9.80;90.00;;;;;;3991986;29;20504;-75
2024/04/02 08:06:11;;;;;;;3.40;0.95;;;9.70;89.10;;;;;;3991849;29;20485;-74
2024/04/02 08:08:13;;;;;;;4.85;0.70;;;9.70;90.10;;;;;;3992064;29;20057;-74
2024/04/02 08:10:14;;;;;;;3.28;0.50;;;9.80;90.50;;;;;;3992062;29;20474;-74
2024/04/02 08:12:16;;;;;;;2.42;0.57;;;9.70;89.60;;;;;;3991759;29;20047;-74
2024/04/02 08:14:21;;;;;;;1.23;0.30;;;9.60;88.90;;;;;;3991956;29;20507;-74
2024/04/02 08:16:24;;;;;;;2.22;0.70;;;9.70;89.30;;;;;;3991703;29;20481;-74
2024/04/02 08:18:25;;;;;;;1.80;0.40;;;9.70;88.60;;;;;;3991656;29;20122;-74
2024/04/02 08:20:27;;;;;;;1.35;0.30;;;9.60;88.60;;;;;;3991861;29;20047;-74
2024/04/02 08:22:28;;;;;;;1.60;0.38;;;9.80;88.90;;;;;;3991926;29;20058;-74
2024/04/02 08:24:29;;;;;;;1.83;0.30;;;9.80;88.40;;;;;;3991890;29;20051;-74
2024/04/02 08:26:31;;;;;;;1.90;0.50;;;9.70;88.50;;;;;;3991723;29;20138;-74
2024/04/02 08:28:32;;;;;;;4.28;0.60;;;9.70;89.30;;;;;;3991918;29;20485;-74
2024/04/02 08:30:33;;;;;;;3.25;0.55;;;9.80;89.40;;;;;;3991993;29;20054;-74
2024/04/02 08:32:36;;;;;;;1.90;0.63;;;9.70;90.00;;;;;;3991844;29;20462;-74
2024/04/02 08:34:37;;;;;;;5.22;1.00;;;9.80;90.10;;;;;;3991845;29;20054;-74
2024/04/02 08:36:39;;;;;;;2.10;0.47;;;9.90;90.00;;;;;;3991576;29;20508;-74
2024/04/02 08:38:40;;;;;;;3.53;0.60;;;9.90;89.60;;;;;;3991818;29;20115;-74
2024/04/02 08:40:42;;;;;;;2.63;0.73;;;9.90;89.30;;;;;;3991965;29;20051;-75
2024/04/02 08:42:48;;;;;;;4.65;0.75;;;9.90;89.40;;;;;;3991636;29;20061;-74
2024/04/02 08:44:50;;;;;;;3.60;0.77;;;9.90;90.00;;;;;;3991565;29;20050;-74
2024/04/02 08:46:51;;;;;;;4.85;0.80;;;9.90;89.30;;;;;;3991645;29;20054;-74
2024/04/02 08:48:57;;;;;;;3.80;0.80;;;10.00;89.30;;;;;;3991618;29;20537;-75
2024/04/02 08:51:00;;;;;;;4.05;0.80;;;10.10;88.90;;;;;;3991642;29;20111;-75
2024/04/02 08:53:02;;;;;;;4.85;1.40;;;10.10;88.60;;;;;;3991561;29;20050;-74
2024/04/02 08:55:03;;;;;;;4.30;0.90;;;10.10;88.70;;;;;;3993502;29;20058;-74
2024/04/02 08:57:07;;;;;;;3.50;1.00;;;10.20;88.00;;;;;;3994106;29;20054;-74
2024/04/02 08:59:09;;;;;;;4.65;0.88;;;10.20;88.90;;;;;;3994125;29;20054;-74
2024/04/02 09:01:13;;;;;;;2.78;0.55;;;10.30;88.40;;;;;;3993939;29;20055;-74
2024/04/02 09:03:15;;;;;;;4.05;0.77;;;10.20;86.20;;;;;;3994128;29;20132;-74
2024/04/02 09:05:18;;;;;;;4.55;0.80;;;10.30;84.50;;;;;;3993974;29;20058;-74
2024/04/02 09:07:19;;;;;;;4.28;1.00;;;10.30;83.40;;;;;;3993984;29;20107;-74
2024/04/02 09:09:21;;;;;;;5.60;0.90;;;10.30;82.70;;;;;;3992300;29;20066;-74
2024/04/02 09:11:24;;;;;;;4.65;0.90;;;10.30;83.40;;;;;;3992059;29;20046;-73
2024/04/02 09:13:26;;;;;;;4.68;1.10;;;10.30;81.30;;;;;;3992003;29;20062;-74
2024/04/02 09:15:27;;;;;;;5.10;1.20;;;10.40;81.40;;;;;;3991934;29;20183;-74
2024/04/02 09:17:29;;;;;;;5.18;1.00;;;10.60;81.70;;;;;;3991806;29;20058;-74
2024/04/02 09:19:29;;;;;;;5.43;1.05;;;10.80;81.30;;;;;;3991528;29;20469;-74
2024/04/02 09:21:33;;;;;;;7.25;1.02;;;10.80;78.10;;;;;;3991009;29;20050;-75
2024/04/02 09:23:34;;;;;;;6.28;1.00;;;10.70;76.60;;;;;;3991540;29;20062;-74
2024/04/02 09:25:35;;;;;;;8.55;2.33;;;10.90;76.90;;;;;;3991737;29;20115;-74
2024/04/02 09:27:36;;;;;;;5.15;1.10;;;10.90;76.30;;;;;;3989755;29;20054;-74
2024/04/02 09:29:38;;;;;;;8.30;1.73;;;10.90;75.90;;;;;;3991491;29;20501;-74
2024/04/02 09:31:39;;;;;;;3.95;0.95;;;10.90;75.60;;;;;;3991703;29;20050;-74
2024/04/02 09:33:42;;;;;;;4.68;0.90;;;11.10;75.70;;;;;;3991293;29;20069;-74
2024/04/02 09:36:06;;;;;;;3.65;1.00;;;11.10;74.50;;;;;;3991624;29;20091;-74
2024/04/02 09:38:11;;;;;;;4.55;0.90;;;11.10;72.20;;;;;;3991452;29;20529;-74
2024/04/02 09:40:14;;;;;;;4.50;0.82;;;11.20;72.50;;;;;;3991433;29;20066;-74
2024/04/02 09:42:17;;;;;;;4.05;0.95;;;11.10;71.60;;;;;;3991384;29;20122;-74
2024/04/02 09:44:19;;;;;;;5.25;0.95;;;11.10;71.80;;;;;;3991546;29;20489;-74
2024/04/02 09:46:22;;;;;;;4.90;1.08;;;11.00;71.90;;;;;;3993826;29;20077;-75
2024/04/02 09:48:26;;;;;;;4.28;0.90;;;11.00;72.20;;;;;;4006315;29;20307;-75
2024/04/02 09:50:28;;;;;;;5.18;0.98;;;11.10;73.00;;;;;;4000490;29;20050;-74
2024/04/02 09:52:30;;;;;;;4.22;1.05;;;11.20;72.60;;;;;;3990884;29;20054;-74
2024/04/02 09:54:37;;;;;;;4.78;1.15;;;11.40;74.50;;;;;;3990964;29;20094;-75
2024/04/02 09:56:37;;;;;;;6.28;1.15;;;11.50;74.00;;;;;;3991043;29;20054;-74
2024/04/02 09:58:39;;;;;;;4.00;0.93;;;11.50;73.40;;;;;;3990771;29;20053;-75
2024/04/02 10:00:46;;;;;;;9.82;1.30;;;11.50;72.90;;;;;;3990898;29;20058;-74
2024/04/02 10:02:50;;;;;;;4.93;1.35;;;11.50;71.10;;;;;;3991025;29;20058;-74
2024/04/02 10:04:51;;;;;;;4.38;1.00;;;11.70;71.50;;;;;;3990631;29;20062;-74
2024/04/02 10:06:56;;;;;;;4.63;1.10;;;11.70;69.70;;;;;;3991011;29;20062;-74
2024/04/02 10:08:58;;;;;;;4.25;1.15;;;11.70;68.80;;;;;;3987629;29;20532;-74
2024/04/02 10:11:03;;;;;;;6.88;1.13;;;11.90;70.30;;;;;;3991007;29;20111;-75
2024/04/02 10:13:06;;;;;;;4.90;1.20;;;11.90;67.50;;;;;;3990757;29;20108;-75
2024/04/02 10:15:11;;;;;;;4.82;1.00;;;11.80;65.40;;;;;;3990850;29;20475;-74
2024/04/02 10:17:15;;;;;;;4.85;1.02;;;11.80;65.70;;;;;;3990892;29;20385;-75
2024/04/02 10:19:19;;;;;;;3.88;0.90;;;11.70;66.20;;;;;;3990917;29;20111;-75
2024/04/02 10:21:22;;;;;;;5.07;0.80;;;11.60;66.90;;;;;;3990280;29;20058;-74
2024/04/02 10:23:25;;;;;;;4.28;1.00;;;11.60;67.80;;;;;;3990785;29;20141;-75
2024/04/02 10:25:28;;;;;;;11.60;3.85;;;11.70;69.30;;;;;;3990741;29;20059;-74
2024/04/02 10:27:35;;;;;;;5.18;1.10;;;11.80;70.10;;;;;;3988677;29;20262;-75
2024/04/02 10:29:36;;;;;;;10.40;1.38;;;11.80;69.50;;;;;;3990690;29;20485;-74
2024/04/02 10:31:40;;;;;;;4.15;0.88;;;11.80;69.20;;;;;;3990711;29;20107;-75
2024/04/02 10:33:42;;;;;;;5.15;1.20;;;12.00;68.80;;;;;;3990369;29;20130;-75
2024/04/02 10:35:44;;;;;;;4.53;0.98;;;12.00;69.00;;;;;;3990785;29;20413;-75
2024/04/02 10:37:49;;;;;;;6.28;1.23;;;11.90;69.80;;;;;;3990717;29;20054;-75
2024/04/02 10:39:51;;;;;;;4.40;0.90;;;12.00;69.90;;;;;;3990708;29;20051;-74
2024/04/02 10:41:52;;;;;;;5.15;1.05;;;12.00;68.10;;;;;;3990336;29;20123;-75
2024/04/02 10:43:55;;;;;;;6.00;0.93;;;12.00;67.90;;;;;;3990239;29;20498;-74
2024/04/02 10:45:56;;;;;;;5.03;0.95;;;12.00;68.10;;;;;;3990001;29;20062;-75
2024/04/02 10:47:58;;;;;;;4.32;1.00;;;12.00;68.40;;;;;;3990424;29;20050;-75
2024/04/02 10:49:59;;;;;;;5.35;1.00;;;12.20;70.80;;;;;;3990598;29;20050;-75
2024/04/02 10:52:04;;;;;;;6.00;0.85;;;12.20;68.10;;;;;;3990439;29;20150;-75
2024/04/02 10:54:05;;;;;;;5.35;0.90;;;12.30;66.90;;;;;;3990532;29;20556;-75
2024/04/02 10:56:09;;;;;;;2.47;0.60;;;12.40;64.70;;;;;;3989654;29;20084;-75
2024/04/02 10:58:11;;;;;;;3.67;0.88;;;12.40;63.90;;;;;;3990194;29;20507;-75
2024/04/02 11:00:16;;;;;;;6.55;1.00;;;12.10;70.20;;;;;;3979584;29;20063;-74
2024/04/02 11:02:19;;;;;;;4.30;0.77;;;11.80;79.00;;;;;;3978837;29;20066;-75
2024/04/02 11:04:21;;;;;;;6.35;1.50;;;11.30;82.60;;;;;;3975736;29;20316;-74
2024/04/02 11:06:22;;;;;;;5.97;0.90;;;11.20;85.30;;;;;;3975123;29;20058;-74
2024/04/02 11:08:26;;;;;;;5.68;1.00;;;11.10;87.60;;;;;;3975013;29;20082;-73
2024/04/02 11:10:27;;;;;;;10.00;2.65;;;11.20;87.40;;;;;;3974819;29;20063;-74
2024/04/02 11:12:29;;;;;;;3.15;0.65;;;11.10;84.00;;;;;;3975081;29;20124;-74
2024/04/02 11:14:30;;;;;;;3.58;0.85;;;11.10;81.60;;;;;;3974962;29;20192;-74
2024/04/02 11:16:33;;;;;;;4.35;1.17;;;11.30;81.20;;;;;;3974493;29;20363;-74
2024/04/02 11:18:35;;;;;;;4.63;0.85;;;11.40;80.20;;;;;;3986786;29;20569;-74
2024/04/02 11:20:37;;;;;;;2.85;0.60;;;11.40;80.70;;;;;;3990055;29;20539;-74
2024/04/02 11:25:08;;;;;;;4.82;0.80;;;11.50;78.50;;;;;;3989971;29;20114;-74
2024/04/02 11:27:10;;;;;;;3.08;0.70;;;11.70;78.00;;;;;;3987921;29;20089;-74
2024/04/02 11:29:11;;;;;;;4.57;1.00;;;11.70;77.30;;;;;;3989680;29;20054;-74
2024/04/02 11:31:14;;;;;;;2.63;0.60;;;11.70;77.50;;;;;;3989803;29;20062;-74
2024/04/02 11:33:17;;;;;;;5.05;0.88;;;11.80;78.70;;;;;;3989543;29;20111;-74
2024/04/02 11:35:19;;;;;;;3.45;0.60;;;11.90;77.20;;;;;;3989810;29;20054;-74
2024/04/02 11:37:21;;;;;;;5.30;0.75;;;11.90;75.40;;;;;;3980698;29;20497;-74
2024/04/02 11:39:21;;;;;;;2.58;0.57;;;11.80;74.80;;;;;;3989804;29;20114;-74
2024/04/02 11:41:24;;;;;;;2.95;0.80;;;11.80;73.50;;;;;;3989487;29;20089;-74
2024/04/02 11:43:25;;;;;;;3.53;0.80;;;11.90;73.60;;;;;;3989483;29;20564;-75
2024/04/02 11:45:27;;;;;;;4.18;0.88;;;12.10;72.60;;;;;;3989789;29;20459;-74
2024/04/02 11:47:28;;;;;;;3.15;0.85;;;12.10;71.10;;;;;;3989731;29;20065;-75
2024/04/02 11:49:31;;;;;;;3.55;0.90;;;12.00;70.30;;;;;;3989420;29;20086;-75
2024/04/02 11:51:32;;;;;;;3.95;0.88;;;12.00;68.60;;;;;;3989769;29;20058;-74
2024/04/02 11:53:34;;;;;;;3.63;0.70;;;12.10;66.30;;;;;;3989763;29;20058;-74
2024/04/02 11:55:34;;;;;;;3.15;0.50;;;12.20;65.40;;;;;;3989560;29;20058;-75
2024/04/02 12:00:16;;;;;;;3.05;0.45;;;12.10;61.90;;;;;;3989584;29;20536;-74
2024/04/02 12:02:19;;;;;;;4.60;1.23;;;12.40;63.80;;;;;;3981202;29;20577;-75
2024/04/02 12:04:21;;;;;;;3.33;0.43;;;12.50;62.90;;;;;;3989551;29;20050;-74
2024/04/02 12:06:25;;;;;;;6.28;1.05;;;12.60;61.40;;;;;;3982089;29;20047;-74
2024/04/02 12:08:25;;;;;;;105.07;35.00;;;12.50;61.70;;;;;;3974439;29;20406;-74
2024/04/02 12:10:27;;;;;;;2.25;0.57;;;12.60;61.40;;;;;;3974262;29;20108;-74
2024/04/02 12:12:29;;;;;;;5.90;1.48;;;12.80;60.70;;;;;;3974469;29;20547;-75
2024/04/02 12:14:31;;;;;;;3.97;0.65;;;13.20;60.80;;;;;;3974589;29;20058;-75
2024/04/02 12:16:32;;;;;;;1.98;0.40;;;13.20;60.60;;;;;;3974362;29;20059;-74
2024/04/02 12:18:35;;;;;;;4.00;0.70;;;12.80;59.70;;;;;;3974500;29;20055;-75
2024/04/02 12:20:36;;;;;;;1.70;0.50;;;12.80;60.40;;;;;;3974416;29;20142;-75
2024/04/02 12:22:39;;;;;;;3.97;0.60;;;12.70;59.10;;;;;;3974026;29;20094;-74
2024/04/02 12:24:40;;;;;;;162.40;73.90;;;12.70;59.60;;;;;;3974470;29;20062;-74
2024/04/02 12:26:42;;;;;;;1.58;0.40;;;12.60;59.70;;;;;;3979121;29;20050;-74
2024/04/02 12:28:44;;;;;;;2.28;0.70;;;12.60;61.30;;;;;;3989278;29;20062;-74
2024/04/02 12:30:46;;;;;;;18.00;2.45;;;12.70;60.70;;;;;;3991802;29;20064;-75
2024/04/02 12:32:48;;;;;;;3.78;0.60;;;13.00;61.60;;;;;;3991776;29;20062;-74
2024/04/02 12:34:50;;;;;;;2.08;0.43;;;13.20;60.00;;;;;;3991979;29;20450;-74
2024/04/02 12:36:51;;;;;;;2.05;0.50;;;13.20;59.00;;;;;;3992341;29;20050;-75
2024/04/02 12:38:55;;;;;;;2.42;0.43;;;13.10;59.70;;;;;;3992245;29;20060;-74
2024/04/02 12:40:56;;;;;;;2.63;0.50;;;13.00;59.80;;;;;;3992055;29;20137;-74
2024/04/02 12:42:58;;;;;;;2.30;0.50;;;12.90;60.20;;;;;;3992153;29;20082;-74
2024/04/02 12:44:59;;;;;;;1.77;0.60;;;13.20;60.30;;;;;;3992012;29;20172;-74
2024/04/02 12:47:01;;;;;;;3.13;0.70;;;13.40;59.50;;;;;;3991943;29;20054;-75
2024/04/02 12:49:07;;;;;;;3.75;0.60;;;13.50;59.20;;;;;;3991614;29;20141;-74
2024/04/02 12:51:09;;;;;;;2.78;0.47;;;13.50;58.30;;;;;;3992097;29;20054;-76
2024/04/02 12:53:10;;;;;;;4.05;0.70;;;13.70;58.10;;;;;;3992035;29;20051;-74
2024/04/02 12:55:13;;;;;;;4.53;0.70;;;13.90;58.80;;;;;;3991872;29;20062;-75
2024/04/02 12:57:14;;;;;;;2.92;0.55;;;14.20;58.60;;;;;;3991464;29;20054;-74
2024/04/02 12:59:16;;;;;;;1.65;0.52;;;14.10;57.70;;;;;;3991530;29;20478;-74
2024/04/02 13:01:17;;;;;;;2.47;0.50;;;14.00;57.60;;;;;;3991412;29;20054;-74
2024/04/02 13:03:19;;;;;;;1.48;0.45;;;14.30;57.00;;;;;;3992271;29;20107;-75
2024/04/02 13:05:20;;;;;;;2.78;0.55;;;14.40;56.90;;;;;;3992099;29;20599;-75
2024/04/02 13:07:21;;;;;;;6.45;2.55;;;14.20;57.00;;;;;;3991840;29;20066;-74
2024/04/02 13:09:23;;;;;;;4.18;0.80;;;14.20;56.00;;;;;;3991721;29;20145;-74
2024/04/02 13:11:26;;;;;;;2.63;0.60;;;14.30;56.50;;;;;;3991933;29;20507;-74
2024/04/02 13:13:27;;;;;;;2.50;0.60;;;14.20;55.80;;;;;;3991795;29;20058;-74
2024/04/02 13:15:32;;;;;;;4.90;0.73;;;14.30;56.00;;;;;;3991879;29;20066;-74
2024/04/02 13:17:33;;;;;;;2.63;0.60;;;14.30;56.40;;;;;;3991915;29;20205;-74
2024/04/02 13:19:35;;;;;;;3.95;0.70;;;14.60;56.70;;;;;;3991939;29;20088;-75
2024/04/02 13:21:38;;;;;;;4.35;0.70;;;14.70;56.30;;;;;;3991364;29;20110;-75
2024/04/02 13:23:40;;;;;;;2.97;0.70;;;14.80;55.30;;;;;;3991685;29;20055;-74
2024/04/02 13:25:41;;;;;;;1.27;0.40;;;14.70;55.60;;;;;;3991367;29;20493;-74
2024/04/02 13:27:45;;;;;;;2.95;0.60;;;14.90;55.10;;;;;;3989825;29;20105;-75
2024/04/02 13:29:47;;;;;;;2.53;0.60;;;14.70;54.00;;;;;;3991678;29;20170;-74
2024/04/02 13:31:49;;;;;;;4.70;0.70;;;14.70;54.30;;;;;;3991605;29;20157;-74
2024/04/02 13:33:51;;;;;;;2.25;0.52;;;15.30;54.60;;;;;;3991338;29;20404;-75
2024/04/02 13:35:52;;;;;;;2.08;0.60;;;14.80;54.30;;;;;;3991653;29;20058;-74
2024/04/02 13:37:54;;;;;;;2.88;0.65;;;15.00;54.50;;;;;;3991707;29;20134;-75
2024/04/02 13:39:55;;;;;;;1.55;0.43;;;15.30;53.20;;;;;;3990973;29;20084;-74
2024/04/02 13:41:57;;;;;;;2.15;0.43;;;15.60;52.80;;;;;;3991520;29;20142;-74
2024/04/02 13:43:59;;;;;;;3.00;0.90;;;15.00;51.70;;;;;;3991684;29;20054;-75
2024/04/02 13:46:03;;;;;;;1.60;0.43;;;15.00;53.10;;;;;;3991333;29;20462;-74
2024/04/02 13:48:05;;;;;;;2.40;0.45;;;14.90;53.20;;;;;;3991321;29;20115;-74
2024/04/02 13:50:08;;;;;;;1.23;0.50;;;14.80;53.00;;;;;;3991623;29;20054;-75
2024/04/02 13:52:09;;;;;;;1.77;0.55;;;14.60;53.40;;;;;;3991334;29;20111;-74
2024/04/02 13:54:11;;;;;;;2.28;0.45;;;14.30;54.90;;;;;;3991584;29;20058;-74
2024/04/02 13:56:14;;;;;;;2.35;0.55;;;13.90;60.80;;;;;;3991544;29;20050;-75
2024/04/02 13:58:16;;;;;;;2.65;0.50;;;13.50;62.70;;;;;;3991045;29;20069;-75
2024/04/02 14:00:19;;;;;;;2.42;0.47;;;13.60;62.20;;;;;;3991299;29;20454;-75
2024/04/02 14:02:21;;;;;;;2.42;0.50;;;13.60;61.20;;;;;;3991317;29;20062;-74
2024/04/02 14:04:22;;;;;;;1.38;0.40;;;14.10;61.10;;;;;;3991297;29;20051;-74
2024/04/02 14:06:24;;;;;;;1.80;0.40;;;14.50;59.40;;;;;;3991388;29;20115;-75
2024/04/02 14:08:28;;;;;;;2.28;0.50;;;14.70;58.60;;;;;;3991480;29;20050;-74
2024/04/02 14:10:32;;;;;;;2.85;0.77;;;15.20;57.60;;;;;;3990438;29;20780;-76
2024/04/02 14:12:34;;;;;;;1.40;0.65;;;15.40;56.60;;;;;;3991159;29;20058;-74
2024/04/02 14:14:35;;;;;;;1.55;0.60;;;16.70;53.30;;;;;;3990547;29;20066;-75
2024/04/02 14:16:39;;;;;;;2.70;0.70;;;19.60;45.50;;;;;;3991053;29;20123;-74
2024/04/02 14:18:40;;;;;;;1.55;0.70;;;20.60;44.90;;;;;;3991406;29;20104;-74
2024/04/02 14:20:54;;;;;;;2.35;0.80;;;22.30;41.00;;;;;;3991110;29;20061;-74
2024/04/02 14:22:55;;;;;;;1.67;0.60;;;24.70;37.30;;;;;;3990469;29;20066;-74
2024/04/02 14:24:57;;;;;;;2.63;0.82;;;22.10;38.20;;;;;;3990804;29;20060;-74
2024/04/02 14:26:58;;;;;;;3.05;0.77;;;22.50;38.10;;;;;;3991157;29;20564;-76
2024/04/02 14:29:00;;;;;;;2.42;0.50;;;21.80;38.40;;;;;;3989128;29;20053;-75
2024/04/02 14:31:04;;;;;;;1.85;0.40;;;18.80;42.10;;;;;;3990869;29;20553;-75
2024/04/02 14:33:07;;;;;;;1.95;0.40;;;16.40;47.70;;;;;;3990720;29;20062;-75
2024/04/02 14:35:08;;;;;;;2.97;0.93;;;15.10;51.20;;;;;;3990582;29;20423;-75
2024/04/02 14:37:10;;;;;;;2.40;0.60;;;16.10;52.10;;;;;;3990921;29;20122;-75
2024/04/02 14:39:11;;;;;;;2.05;0.55;;;18.90;45.50;;;;;;3991079;29;20145;-75
2024/04/02 14:41:14;;;;;;;2.53;0.70;;;18.00;45.50;;;;;;3990630;29;20485;-75
2024/04/02 14:43:15;;;;;;;4.57;3.50;;;17.10;48.70;;;;;;3990853;29;20497;-76
2024/04/02 14:45:17;;;;;;;2.05;0.60;;;16.70;49.70;;;;;;3990378;29;20111;-75
2024/04/02 14:47:18;;;;;;;1.95;0.55;;;17.20;47.90;;;;;;3990360;29;20046;-75
2024/04/02 14:49:22;;;;;;;1.48;0.43;;;16.50;49.30;;;;;;3990517;29;20054;-75
2024/04/02 14:51:23;;;;;;;3.80;3.50;;;16.00;51.30;;;;;;3989899;29;20338;-75
2024/04/02 14:53:24;;;;;;;120.18;110.35;;;18.60;49.80;;;;;;3990014;29;20061;-74
2024/04/02 14:55:25;;;;;;;209.70;198.55;;;20.10;45.40;;;;;;3978358;29;20063;-75
2024/04/02 14:57:27;;;;;;;3.28;0.50;;;19.90;44.00;;;;;;3975304;29;20061;-75
2024/04/02 14:59:28;;;;;;;8.07;7.50;;;20.70;42.40;;;;;;3987166;29;20121;-75
2024/04/02 15:01:30;;;;;;;2.00;0.57;;;20.40;40.60;;;;;;3990607;29;20412;-74
2024/04/02 15:03:31;;;;;;;15.65;14.65;;;20.50;41.50;;;;;;3990722;29;20466;-75
2024/04/02 15:05:35;;;;;;;69.68;62.92;;;20.70;40.60;;;;;;3990509;29;20054;-75
2024/04/02 15:07:36;;;;;;;18.35;17.08;;;19.20;41.40;;;;;;3990443;29;20065;-74
2024/04/02 15:09:38;;;;;;;1.55;0.60;;;19.00;41.70;;;;;;3989933;29;20104;-75
2024/04/02 15:11:39;;;;;;;3.33;1.67;;;19.00;43.00;;;;;;3978372;29;20054;-75
2024/04/02 15:13:42;;;;;;;4.10;3.53;;;19.10;42.50;;;;;;3975298;29;20063;-74
2024/04/02 15:15:43;;;;;;;1.42;0.60;;;18.10;43.80;;;;;;3975272;29;20123;-75
2024/04/02 15:17:45;;;;;;;2.83;0.73;;;19.30;43.90;;;;;;3975314;29;20054;-75
2024/04/02 15:19:46;;;;;;;2.50;0.40;;;19.50;43.10;;;;;;3978991;29;20066;-75
2024/04/02 15:21:52;;;;;;;19.63;18.60;;;20.30;42.00;;;;;;3989940;29;20062;-75
2024/04/02 15:23:53;;;;;;;42.53;40.35;;;19.90;40.50;;;;;;3990179;29;20508;-75
2024/04/02 15:25:55;;;;;;;3.42;1.65;;;19.60;41.00;;;;;;3990031;29;20129;-75
2024/04/02 15:27:56;;;;;;;1.60;0.65;;;19.70;40.70;;;;;;3987997;29;20119;-74
2024/04/02 15:29:58;;;;;;;1.80;0.70;;;19.60;41.40;;;;;;3989922;29;20062;-76
2024/04/02 15:31:59;;;;;;;3.15;0.60;;;20.50;39.90;;;;;;3989592;29;20251;-74
2024/04/02 15:34:01;;;;;;;2.20;0.60;;;18.40;43.60;;;;;;3985220;29;20149;-74
2024/04/02 15:36:07;;;;;;;3.15;0.50;;;19.10;43.60;;;;;;3987782;29;20061;-75
2024/04/02 15:38:10;;;;;;;2.20;0.70;;;19.40;40.90;;;;;;3989123;29;20607;-75
2024/04/02 15:40:12;;;;;;;3.38;0.85;;;19.20;41.40;;;;;;3989067;29;20791;-75
2024/04/02 15:42:16;;;;;;;2.40;0.70;;;19.10;42.50;;;;;;3989260;29;20533;-74
2024/04/02 15:44:16;;;;;;;1.88;0.70;;;19.70;41.80;;;;;;3989900;29;20368;-75